• Join FlightAware (Why Join?)
  • Login
  • US Flag 
05:17AM EDT


 

Airport Tracker/Info


-or-


 

Live Flight TrackerFlight Track Log ✈ TRS359 ✈ 27-Apr-2013 ✈ KMCI - KATL

Flight Track Log - Related Links

Times and Time Zones

All times are in EDT time to prevent confusion due to time zone crossing. See the TRS359 flight status page for this flight to view local times or setup timezone preferences in your user account.

Time Position Orientation Groundspeed Altitude Reporting Facility
EDT Latitude Longitude Course Direction KTS MPH feet Rate Location/Type
07:36AM 39.3000 -94.7333 180° South 169 194 1,700  Level Kansas City TRACON
07:38AM 39.2333 -94.7333 180° South 214 246 3,700 1,680 Climbing Kansas City TRACON
07:39AM 39.1933 -94.6672 128° Southeast 247 284 5,400 2,040 Climbing Kansas City Center
07:40AM 39.1778 -94.5786 103° East 262 302 7,900 2,520 Climbing Kansas City Center
07:41AM 39.1583 -94.4706 103° East 276 318 10,500 1,860 Climbing Kansas City Center
07:42AM 39.1383 -94.3628 103° East 320 368 11,800 1,560 Climbing Kansas City Center
07:43AM 39.1047 -94.2503 111° Southeast 349 402 13,700 2,220 Climbing Kansas City Center
07:44AM 39.0592 -94.1147 113° Southeast 368 423 16,300 1,980 Climbing Kansas City Center
07:45AM 39.0192 -93.9972 114° Southeast 375 432 17,800 1,680 Climbing Kansas City Center
07:46AM 38.9778 -93.8747 113° Southeast 388 447 19,800 1,860 Climbing Kansas City Center
07:47AM 38.9328 -93.7353 112° Southeast 402 463 21,700 1,680 Climbing Kansas City Center
07:48AM 38.8867 -93.5950 113° Southeast 423 487 23,200 1,440 Climbing Kansas City Center
07:49AM 38.8364 -93.4525 114° Southeast 431 496 24,700 1,500 Climbing Kansas City Center
07:50AM 38.7856 -93.3047 114° Southeast 445 512 26,300 1,500 Climbing Kansas City Center
07:51AM 38.7331 -93.1536 114° Southeast 456 525 27,800 1,500 Climbing Kansas City Center
07:52AM 38.6808 -93.0003 114° Southeast 464 534 29,400 1,500 Climbing Kansas City Center
07:53AM 38.6283 -92.8489 114° Southeast 463 533 30,900 1,560 Climbing Kansas City Center
07:54AM 38.5756 -92.6994 114° Southeast 462 532 32,600 1,680 Climbing Kansas City Center
07:55AM 38.5242 -92.5519 114° Southeast 455 524 34,400 1,140 Climbing Kansas City Center
07:56AM 38.4731 -92.4092 115° Southeast 443 510 35,000 240 Climbing Kansas City Center
07:57AM 38.4222 -92.2619 114° Southeast 447 514 35,000  Level Kansas City Center
07:58AM 38.3692 -92.1142 115° Southeast 450 518 35,000  Level Kansas City Center
07:59AM 38.3150 -91.9683 115° Southeast 450 518 35,000  Level Kansas City Center
08:00AM 38.2622 -91.8214 115° Southeast 452 520 35,000  Level Kansas City Center
08:01AM 38.2094 -91.6744 115° Southeast 452 520 35,000  Level Kansas City Center
08:02AM 38.1558 -91.5286 115° Southeast 453 521 35,000  Level Kansas City Center
08:03AM 38.1011 -91.3833 116° Southeast 453 521 35,000  Level Kansas City Center
08:04AM 38.0492 -91.2378 114° Southeast 451 519 35,000  Level Kansas City Center
08:05AM 37.9950 -91.0903 115° Southeast 456 525 35,000  Level Kansas City Center
08:06AM 37.9372 -90.9356 115° Southeast 461 531 35,000  Level Kansas City Center
08:07AM 37.8822 -90.7881 115° Southeast 464 534 35,000  Level Kansas City Center
08:08AM 37.8272 -90.6419 115° Southeast 466 536 35,000  Level Kansas City Center
08:09AM 37.7711 -90.4919 115° Southeast 471 542 35,000  Level Kansas City Center
08:10AM 37.7150 -90.3456 116° Southeast 470 541 35,000  Level Kansas City Center
08:11AM 37.6586 -90.1994 116° Southeast 467 537 35,000  Level Kansas City Center
08:12AM 37.5978 -90.0556 118° Southeast 467 537 35,000  Level Kansas City Center
08:13AM 37.5286 -89.8844 117° Southeast 470 541 35,000  Level Kansas City Center
08:14AM 37.4686 -89.7342 117° Southeast 477 549 35,000  Level Kansas City Center
08:15AM 37.4069 -89.5858 118° Southeast 477 549 35,000  Level Kansas City Center
08:16AM 37.3431 -89.4386 119° Southeast 473 544 35,000  Level Memphis Center
08:17AM 37.2814 -89.2933 118° Southeast 468 539 35,000  Level Memphis Center
08:18AM 37.2217 -89.1456 117° Southeast 468 539 35,000  Level Memphis Center
08:19AM 37.1578 -88.9956 118° Southeast 473 544 35,000  Level Memphis Center
08:20AM 37.0978 -88.8511 117° Southeast 473 544 35,000  Level Memphis Center
08:21AM 37.0333 -88.6989 118° Southeast 473 544 35,000  Level Memphis Center
08:22AM 36.9689 -88.5550 119° Southeast 473 544 35,000  Level Memphis Center
08:23AM 36.9061 -88.4083 118° Southeast 473 544 35,000  Level Memphis Center
08:24AM 36.8453 -88.2594 117° Southeast 473 544 35,000  Level Memphis Center
08:25AM 36.7911 -88.1444 120° Southeast 468 539 35,000  Level Memphis Center
08:26AM 36.7194 -87.9833 119° Southeast 478 550 35,000  Level Memphis Center
08:27AM 36.6542 -87.8378 119° Southeast 478 550 35,000  Level Memphis Center
08:28AM 36.5842 -87.6797 119° Southeast 472 543 35,000  Level Memphis Center
08:29AM 36.5203 -87.5347 119° Southeast 477 549 35,000  Level Memphis Center
08:30AM 36.4567 -87.3950 119° Southeast 467 537 35,000  Level Memphis Center
08:31AM 36.3928 -87.2556 120° Southeast 467 537 35,000  Level Memphis Center
08:32AM 36.3308 -87.1161 119° Southeast 460 529 35,000  Level Memphis Center
08:33AM 36.2644 -86.9722 120° Southeast 465 535 35,000  Level Memphis Center
08:34AM 36.1936 -86.8258 121° Southeast 480 552 35,000 -180 Level Memphis Center
08:35AM 36.1250 -86.6850 121° Southeast 491 565 34,700 -420 Descending Memphis Center
08:36AM 36.0200 -86.5922 144° Southeast 455 524 34,200 -480 Descending Memphis Center
08:38AM 35.8511 -86.4547 147° Southeast 485 558 33,500 -480 Descending Atlanta Center
08:39AM 35.7422 -86.3669 147° Southeast 480 552 33,100 -300 Descending Atlanta Center
08:40AM 35.6311 -86.2769 147° Southeast 475 547 33,000 -60 Descending Atlanta Center
08:41AM 35.5242 -86.1897 146° Southeast 475 547 33,000  Level Atlanta Center
08:42AM 35.4111 -86.1003 147° Southeast 475 547 33,000  Level Atlanta Center
08:43AM 35.3019 -86.0111 146° Southeast 475 547 33,000  Level Atlanta Center
08:44AM 35.1864 -85.9244 148° Southeast 481 554 33,000  Level Atlanta Center
08:45AM 35.0792 -85.8358 146° Southeast 481 554 33,000  Level Atlanta Center
08:46AM 34.9678 -85.7497 148° Southeast 476 548 33,000 -1,080 Level Atlanta Center
08:47AM 34.8564 -85.6614 147° Southeast 476 548 30,900 -2,460 Descending Atlanta Center
08:48AM 34.7447 -85.5733 147° Southeast 476 548 28,100 -2,700 Descending Atlanta Center
08:49AM 34.6353 -85.4878 147° Southeast 476 548 25,500 -2,580 Descending Atlanta Center
08:50AM 34.5297 -85.4053 147° Southeast 466 536 23,000 -2,460 Descending Atlanta Center
08:51AM 34.4303 -85.3283 147° Southeast 446 513 20,600 -2,400 Descending Atlanta Center
08:52AM 34.3308 -85.2514 147° Southeast 430 495 18,300 -2,400 Descending Atlanta Center
08:53AM 34.2378 -85.1769 147° Southeast 417 480 15,900 -2,340 Descending Atlanta Center
08:54AM 34.1508 -85.1056 146° Southeast 397 457 13,700 -1,500 Descending Atlanta Center
08:55AM 34.0847 -85.0169 132° Southeast 365 420 12,900 -1,320 Descending Atlanta Center
08:56AM 34.0228 -84.9386 134° Southeast 330 380 11,100 -1,500 Descending Atlanta Center
08:57AM 33.9628 -84.8628 134° Southeast 319 367 10,000 -960 Descending Atlanta Center
08:58AM 33.8667 -84.8000 152° Southeast 295 339 9,100 -1,320 Descending Atlanta TRACON
08:59AM 33.8000 -84.7667 157° South 272 313 7,100 -2,280 Descending Atlanta TRACON
09:00AM 33.7333 -84.7500 168° South 248 285 4,600 -1,620 Descending Atlanta TRACON
09:01AM 33.6833 -84.6833 132° Southeast 250 288 3,900 -660 Descending Atlanta TRACON
09:02AM 33.6667 -84.6167 107° East 209 241 3,300 -480 Descending Atlanta TRACON
09:03AM 33.6500 -84.5500 107° East 189 217 3,000 -600 Descending Atlanta TRACON
09:04AM 33.6500 -84.5000 90° East 145 167 2,200 -780 Descending Atlanta TRACON
09:05AM 33.6500 -84.4667 90° East 130 150 1,600 -720 Descending Atlanta TRACON
09:07AM 33.6367 -84.4279 98° East  Level Estimated
09:14AM 33.6367 -84.4279 98° East  Level Estimated